Time;durP1;ratioP1;P1;durP2;ratioP2;P2;SDS_P1;SDS_P2;PMS_P1;PMS_P2;Temp;Humidity;BMP_temperature;BMP_pressure;BME280_temperature;BME280_humidity;BME280_pressure;Samples;Min_cycle;Max_cycle;Signal;HPM_P1;HPM_P2
2022/11/14 00:00:41;;;;;;;17.75;13.75;;;;;;;5.85;78.41;99924.50;1087240;54;20038;-80
2022/11/14 00:01:42;;;;;;;19.23;15.55;;;;;;;5.81;78.70;99930.16;1086990;54;20069;-81
2022/11/14 00:02:47;;;;;;;20.70;15.93;;;;;;;5.78;78.50;99932.06;1088140;54;20038;-82
2022/11/14 00:03:49;;;;;;;17.60;14.15;;;;;;;5.83;78.45;99931.72;1088268;54;20073;-82
2022/11/14 00:04:55;;;;;;;19.02;14.43;;;;;;;5.86;78.47;99939.44;1088178;54;20038;-82
2022/11/14 00:05:59;;;;;;;18.60;13.43;;;;;;;5.90;78.24;99930.28;1088270;54;20061;-82
2022/11/14 00:07:02;;;;;;;19.90;14.50;;;;;;;5.84;78.56;99932.56;1089148;46;20792;-81
2022/11/14 00:08:06;;;;;;;19.25;14.43;;;;;;;5.85;78.48;99935.09;1088121;54;20046;-81
2022/11/14 00:09:08;;;;;;;16.60;13.45;;;;;;;5.91;78.38;99925.84;1090659;39;20688;-81
2022/11/14 00:10:12;;;;;;;18.27;13.95;;;;;;;5.92;78.29;99931.00;1088590;46;20011;-82
2022/11/14 00:11:14;;;;;;;14.75;11.85;;;;;;;5.97;78.14;99921.88;1087632;54;20018;-82
2022/11/14 00:12:18;;;;;;;19.73;14.52;;;;;;;5.98;78.05;99918.25;1088151;54;20046;-84
2022/11/14 00:13:32;;;;;;;16.98;13.55;;;;;;;5.95;78.11;99916.69;1088031;54;20021;-81
2022/11/14 00:14:36;;;;;;;16.95;14.10;;;;;;;5.91;78.26;99917.88;1088330;46;20019;-82
2022/11/14 00:15:38;;;;;;;18.23;13.80;;;;;;;5.95;78.17;99924.66;1088207;54;20018;-81
2022/11/14 00:16:43;;;;;;;16.67;13.02;;;;;;;6.01;78.05;99923.34;1088106;54;20030;-80
2022/11/14 00:17:45;;;;;;;17.65;13.38;;;;;;;6.06;77.87;99926.50;1088196;54;20026;-81
2022/11/14 00:18:51;;;;;;;14.60;11.85;;;;;;;6.10;78.15;99922.63;1088106;54;20027;-82
2022/11/14 00:19:53;;;;;;;16.35;12.98;;;;;;;6.11;78.11;99926.13;1088130;54;20034;-81
2022/11/14 00:20:57;;;;;;;19.67;12.98;;;;;;;6.08;78.20;99925.41;1088144;54;20037;-82
2022/11/14 00:22:01;;;;;;;18.45;13.60;;;;;;;6.07;77.89;99928.19;1088194;54;20030;-81
2022/11/14 00:23:03;;;;;;;18.10;13.63;;;;;;;6.09;78.07;99940.38;1090473;46;20038;-82
2022/11/14 00:24:08;;;;;;;16.75;13.15;;;;;;;6.14;78.07;99933.88;1088104;54;20042;-82
2022/11/14 00:25:11;;;;;;;15.23;12.35;;;;;;;6.12;78.18;99930.47;1088086;54;20038;-82
2022/11/14 00:26:16;;;;;;;17.40;12.75;;;;;;;6.15;78.20;99935.53;1088197;54;20011;-81
2022/11/14 00:27:24;;;;;;;14.35;11.32;;;;;;;6.16;78.00;99931.91;1088065;54;20041;-81
2022/11/14 00:28:28;;;;;;;17.30;13.13;;;;;;;6.16;77.88;99924.81;1089119;46;20034;-81
2022/11/14 00:29:32;;;;;;;15.82;12.52;;;;;;;6.20;77.76;99933.38;1090248;46;20029;-84
2022/11/14 00:30:36;;;;;;;16.83;11.98;;;;;;;6.18;77.77;99924.69;1090884;46;20037;-83
2022/11/14 00:31:39;;;;;;;18.17;12.43;;;;;;;6.20;78.00;99922.75;1091242;46;20061;-83
2022/11/14 00:32:43;;;;;;;16.58;12.70;;;;;;;6.19;77.83;99921.91;1088021;54;20035;-84
2022/11/14 00:33:45;;;;;;;15.73;12.25;;;;;;;6.20;77.87;99933.38;1088043;54;20034;-82
2022/11/14 00:34:49;;;;;;;17.10;13.50;;;;;;;6.15;77.89;99931.09;1088070;54;20058;-83
2022/11/14 00:35:57;;;;;;;16.33;12.85;;;;;;;6.13;78.00;99926.88;1088053;54;20026;-83
2022/11/14 00:37:01;;;;;;;16.45;13.10;;;;;;;6.15;77.96;99923.13;1088154;54;20030;-83
2022/11/14 00:38:11;;;;;;;15.70;12.02;;;;;;;6.16;78.26;99921.31;1087908;54;20045;-82
2022/11/14 00:39:16;;;;;;;18.27;13.32;;;;;;;6.13;78.10;99927.69;1088033;54;20030;-81
2022/11/14 00:40:18;;;;;;;15.93;12.75;;;;;;;6.14;78.22;99931.22;1088031;54;20038;-80
2022/11/14 00:41:23;;;;;;;17.13;13.32;;;;;;;6.09;78.28;99929.75;1088062;54;20038;-81
2022/11/14 00:42:25;;;;;;;17.20;13.30;;;;;;;6.04;78.74;99933.72;1088007;54;20045;-81
2022/11/14 00:43:30;;;;;;;18.73;14.15;;;;;;;6.03;78.62;99927.59;1088056;54;20056;-82
2022/11/14 00:44:34;;;;;;;16.30;12.45;;;;;;;6.06;78.74;99927.31;1088145;54;20030;-83
2022/11/14 00:45:47;;;;;;;16.35;13.27;;;;;;;6.03;79.02;99922.28;1088141;54;20098;-81
2022/11/14 00:46:48;;;;;;;18.75;14.02;;;;;;;5.96;79.27;99914.88;1088020;54;20052;-84
2022/11/14 00:47:53;;;;;;;15.38;11.80;;;;;;;6.03;78.92;99916.09;1088043;54;20034;-82
2022/11/14 00:48:54;;;;;;;16.08;12.93;;;;;;;6.03;79.08;99922.28;1087957;54;20026;-82
2022/11/14 00:50:02;;;;;;;14.73;11.43;;;;;;;6.08;78.98;99924.56;1088037;54;20037;-81
2022/11/14 00:51:03;;;;;;;16.67;13.38;;;;;;;6.07;78.74;99923.72;1087987;54;20025;-83
2022/11/14 00:52:08;;;;;;;15.90;12.43;;;;;;;6.06;78.66;99932.63;1088006;54;20034;-81
2022/11/14 00:53:09;;;;;;;16.05;12.10;;;;;;;6.02;78.76;99928.53;1088035;54;20033;-81
2022/11/14 00:54:20;;;;;;;18.90;13.10;;;;;;;5.99;79.05;99915.50;1088027;54;20034;-82
2022/11/14 00:55:21;;;;;;;15.45;11.30;;;;;;;6.01;79.04;99920.69;1088030;54;20046;-81
2022/11/14 00:56:26;;;;;;;17.38;13.55;;;;;;;5.99;79.22;99914.63;1092805;46;20015;-83
2022/11/14 00:57:27;;;;;;;15.05;12.10;;;;;;;6.00;78.92;99922.50;1088077;54;20310;-84
2022/11/14 00:58:32;;;;;;;15.55;11.90;;;;;;;6.06;78.71;99914.06;1087968;54;20030;-82
2022/11/14 00:59:36;;;;;;;18.70;12.63;;;;;;;6.05;78.74;99916.84;1095385;39;20665;-83
2022/11/14 01:00:42;;;;;;;14.60;11.30;;;;;;;6.05;78.85;99909.72;1088026;54;20034;-82
2022/11/14 01:01:43;;;;;;;14.20;10.75;;;;;;;6.09;78.81;99916.47;1088034;54;20719;-81
2022/11/14 01:02:48;;;;;;;16.98;12.15;;;;;;;6.04;78.62;99913.34;1088056;54;20065;-82
2022/11/14 01:03:53;;;;;;;16.08;12.45;;;;;;;6.04;78.81;99907.19;1088946;47;20025;-83
2022/11/14 01:04:54;;;;;;;17.30;12.18;;;;;;;5.96;79.07;99907.72;1088071;54;20087;-81
2022/11/14 01:05:59;;;;;;;18.05;13.65;;;;;;;5.91;79.33;99912.56;1088041;54;20702;-81
2022/11/14 01:07:01;;;;;;;16.08;12.25;;;;;;;5.95;79.18;99914.03;1088077;54;20038;-82
2022/11/14 01:08:06;;;;;;;16.00;12.30;;;;;;;6.00;78.80;99911.06;1088006;54;20015;-83
2022/11/14 01:09:08;;;;;;;15.05;10.75;;;;;;;6.05;79.04;99915.00;1089485;39;20699;-83
2022/11/14 01:10:12;;;;;;;14.57;11.13;;;;;;;6.08;78.69;99909.47;1090222;47;20027;-81
2022/11/14 01:11:17;;;;;;;16.42;10.60;;;;;;;6.12;78.78;99910.09;1088010;54;20044;-83
2022/11/14 01:12:21;;;;;;;14.05;10.63;;;;;;;6.14;78.83;99915.28;1088022;54;20773;-82
2022/11/14 01:13:23;;;;;;;15.30;10.93;;;;;;;6.18;78.55;99903.44;1087914;54;20022;-84
2022/11/14 01:14:27;;;;;;;14.45;10.68;;;;;;;6.19;78.24;99911.28;1088614;47;20018;-84
2022/11/14 01:15:32;;;;;;;16.00;11.38;;;;;;;6.16;78.35;99900.06;1088013;54;20034;-84
2022/11/14 01:16:36;;;;;;;14.45;11.18;;;;;;;6.08;78.34;99904.16;1088073;54;20015;-84
2022/11/14 01:17:38;;;;;;;12.50;9.68;;;;;;;6.14;78.48;99891.41;1087905;54;20053;-82
2022/11/14 01:18:43;;;;;;;13.18;10.65;;;;;;;6.19;78.53;99892.69;1087159;54;20027;-82
2022/11/14 01:19:44;;;;;;;13.70;10.02;;;;;;;6.20;78.39;99893.56;1086975;54;20042;-82
2022/11/14 01:20:51;;;;;;;14.52;10.57;;;;;;;6.13;78.45;99889.72;1086792;54;20039;-82
2022/11/14 01:21:52;;;;;;;14.90;11.40;;;;;;;6.17;78.20;99889.34;1087570;47;20069;-85
2022/11/14 01:22:59;;;;;;;14.43;11.00;;;;;;;6.17;78.35;99885.84;1088486;47;20103;-83
2022/11/14 01:24:01;;;;;;;13.80;10.95;;;;;;;6.19;78.04;99881.25;1088115;47;20038;-82
2022/11/14 01:25:07;;;;;;;15.20;10.38;;;;;;;6.22;78.07;99881.03;1087919;54;20030;-82
2022/11/14 01:26:11;;;;;;;14.05;11.18;;;;;;;6.23;77.96;99880.06;1087995;54;20057;-82
2022/11/14 01:27:16;;;;;;;13.05;9.98;;;;;;;6.24;77.89;99892.34;1090440;47;20065;-83
2022/11/14 01:28:18;;;;;;;13.35;9.93;;;;;;;6.22;77.62;99896.94;1099722;39;20614;-82
2022/11/14 01:29:23;;;;;;;14.43;10.40;;;;;;;6.23;77.76;99896.00;1088070;54;20034;-81
2022/11/14 01:30:25;;;;;;;15.63;11.05;;;;;;;6.21;77.75;99900.56;1087952;54;20019;-83
2022/11/14 01:31:31;;;;;;;14.43;10.13;;;;;;;6.23;77.75;99898.66;1088004;54;20042;-82
2022/11/14 01:32:33;;;;;;;14.90;10.15;;;;;;;6.24;77.49;99900.31;1090601;47;20027;-82
2022/11/14 01:33:37;;;;;;;14.80;9.68;;;;;;;6.27;77.31;99902.72;1087915;54;20042;-81
2022/11/14 01:34:39;;;;;;;12.57;9.60;;;;;;;6.30;77.22;99901.63;1087944;54;20030;-81
2022/11/14 01:35:43;;;;;;;14.43;10.02;;;;;;;6.26;77.42;99901.03;1088005;54;20025;-81
2022/11/14 01:36:45;;;;;;;14.80;10.88;;;;;;;6.04;77.94;99891.25;1088058;54;20038;-82
2022/11/14 01:37:50;;;;;;;16.98;11.10;;;;;;;6.03;78.16;99892.22;1088053;54;20038;-83
2022/11/14 01:38:52;;;;;;;14.07;11.20;;;;;;;6.01;78.22;99892.34;1087935;54;20038;-82
2022/11/14 01:39:57;;;;;;;17.20;12.57;;;;;;;5.88;78.53;99892.44;1088098;54;20015;-83
2022/11/14 01:40:59;;;;;;;15.88;11.23;;;;;;;5.93;78.57;99887.59;1087858;54;20034;-82
2022/11/14 01:42:04;;;;;;;15.25;11.10;;;;;;;6.00;78.09;99879.22;1088405;47;20034;-81
2022/11/14 01:43:28;;;;;;;14.65;11.73;;;;;;;5.99;77.67;99880.13;1087916;54;20023;-81
2022/11/14 01:44:56;;;;;;;14.90;11.20;;;;;;;6.08;77.29;99882.09;1088083;54;20018;-82
2022/11/14 01:46:01;;;;;;;15.60;11.48;;;;;;;5.86;78.27;99882.88;1087619;54;20034;-81
2022/11/14 01:47:08;;;;;;;15.80;11.98;;;;;;;5.76;78.71;99885.41;1087616;54;20022;-83
2022/11/14 01:48:20;;;;;;;15.38;12.02;;;;;;;5.67;79.00;99878.97;1087965;54;20026;-83
2022/11/14 01:49:28;;;;;;;16.60;12.32;;;;;;;5.70;79.16;99878.75;1088042;54;20057;-82
2022/11/14 01:50:29;;;;;;;15.88;12.40;;;;;;;5.74;79.17;99876.72;1088841;47;20011;-82
2022/11/14 01:51:43;;;;;;;16.55;12.82;;;;;;;5.70;79.09;99868.16;1087903;54;20780;-82
2022/11/14 01:52:45;;;;;;;15.23;11.90;;;;;;;5.67;79.06;99867.53;1090344;39;20618;-82
2022/11/14 01:53:52;;;;;;;18.85;12.82;;;;;;;5.63;79.29;99861.63;1087942;54;20038;-82
2022/11/14 01:54:57;;;;;;;15.88;12.70;;;;;;;5.60;79.54;99861.84;1087957;54;20050;-83
2022/11/14 01:56:09;;;;;;;16.25;12.27;;;;;;;5.59;79.70;99857.50;1087903;54;20026;-82
2022/11/14 01:57:14;;;;;;;15.27;12.07;;;;;;;5.60;79.64;99856.53;1087914;54;20030;-82
2022/11/14 01:58:19;;;;;;;15.93;13.02;;;;;;;5.63;79.64;99854.50;1087828;54;20062;-82
2022/11/14 01:59:24;;;;;;;16.92;12.27;;;;;;;5.64;79.41;99852.72;1087951;54;20019;-82
2022/11/14 02:00:28;;;;;;;16.60;12.18;;;;;;;5.72;79.38;99849.44;1087939;54;20046;-82
2022/11/14 02:01:37;;;;;;;16.00;11.93;;;;;;;5.66;79.54;99850.78;1087936;54;20069;-83
2022/11/14 02:02:52;;;;;;;15.73;12.55;;;;;;;5.62;79.88;99849.31;1087227;54;20057;-79
2022/11/14 02:03:59;;;;;;;15.00;11.50;;;;;;;5.71;79.32;99855.75;1087252;54;20027;-80
2022/11/14 02:05:04;;;;;;;13.45;11.30;;;;;;;5.73;79.58;99853.78;1087274;54;20035;-79
2022/11/14 02:06:11;;;;;;;16.45;12.88;;;;;;;5.62;79.63;99849.31;1087228;54;20042;-79
2022/11/14 02:07:16;;;;;;;16.70;12.77;;;;;;;5.58;80.02;99843.41;1087353;54;20038;-79
2022/11/14 02:08:18;;;;;;;16.88;13.05;;;;;;;5.60;79.95;99845.94;1087241;54;20057;-80
2022/11/14 02:09:23;;;;;;;15.60;12.90;;;;;;;5.64;79.81;99847.41;1087603;54;20094;-79
2022/11/14 02:10:24;;;;;;;15.18;12.10;;;;;;;5.62;79.90;99844.03;1087600;54;20039;-80
2022/11/14 02:11:32;;;;;;;16.00;12.68;;;;;;;5.60;80.29;99845.94;1087570;54;20090;-79
2022/11/14 02:12:34;;;;;;;15.80;11.60;;;;;;;5.59;80.35;99845.09;1087581;54;20030;-79
2022/11/14 02:13:39;;;;;;;15.80;12.15;;;;;;;5.54;80.50;99846.41;1087480;54;20053;-80
2022/11/14 02:14:44;;;;;;;18.95;14.38;;;;;;;5.49;80.78;99840.59;1087615;54;20038;-79
2022/11/14 02:15:48;;;;;;;18.63;13.68;;;;;;;5.43;81.17;99834.81;1087608;54;20034;-79
2022/11/14 02:16:49;;;;;;;15.63;12.57;;;;;;;5.40;81.23;99837.69;1087592;54;20035;-80
2022/11/14 02:17:56;;;;;;;16.65;13.25;;;;;;;5.40;81.56;99835.03;1087650;54;20034;-79
2022/11/14 02:18:58;;;;;;;18.58;12.73;;;;;;;5.41;81.33;99835.91;1087610;54;20042;-80
2022/11/14 02:20:16;;;;;;;16.83;12.02;;;;;;;5.45;80.84;99824.94;1087545;54;20107;-80
2022/11/14 02:21:21;;;;;;;16.55;13.52;;;;;;;5.41;81.13;99835.91;1089037;46;20077;-79
2022/11/14 02:22:22;;;;;;;18.98;14.00;;;;;;;5.40;81.16;99831.56;1087652;54;20034;-79
2022/11/14 02:23:28;;;;;;;17.25;13.88;;;;;;;5.38;81.08;99828.19;1087515;54;20027;-80
2022/11/14 02:24:29;;;;;;;20.63;13.85;;;;;;;5.40;81.11;99827.09;1087547;54;20098;-79
2022/11/14 02:25:33;;;;;;;15.32;11.90;;;;;;;5.52;80.91;99821.81;1087620;54;20033;-79
2022/11/14 02:26:38;;;;;;;17.35;12.80;;;;;;;5.55;80.48;99829.56;1087588;54;20038;-79
2022/11/14 02:27:40;;;;;;;17.45;12.68;;;;;;;5.60;80.61;99820.28;1087613;54;20076;-79
2022/11/14 02:28:44;;;;;;;16.02;12.07;;;;;;;5.61;80.41;99821.13;1088334;46;20034;-79
2022/11/14 02:29:46;;;;;;;14.45;11.88;;;;;;;5.71;80.01;99815.97;1088035;46;20061;-80
2022/11/14 02:30:50;;;;;;;14.20;11.38;;;;;;;5.70;80.11;99811.63;1087580;54;20037;-80
2022/11/14 02:31:51;;;;;;;14.73;11.93;;;;;;;5.76;79.77;99811.97;1087551;54;20038;-79
2022/11/14 02:32:55;;;;;;;16.20;12.25;;;;;;;5.72;79.76;99810.53;1087871;46;20046;-80
2022/11/14 02:33:57;;;;;;;15.52;12.93;;;;;;;5.65;80.36;99811.09;1087735;46;20030;-79
2022/11/14 02:35:01;;;;;;;14.70;12.90;;;;;;;5.54;80.44;99814.59;1087570;54;20777;-79
2022/11/14 02:36:06;;;;;;;17.88;13.38;;;;;;;5.57;80.48;99812.56;1087616;54;20038;-79
2022/11/14 02:37:10;;;;;;;17.05;11.95;;;;;;;5.62;80.29;99806.91;1087492;54;20030;-80
2022/11/14 02:38:12;;;;;;;15.90;12.45;;;;;;;5.52;80.66;99809.44;1087585;46;20030;-79
2022/11/14 02:39:16;;;;;;;17.27;13.45;;;;;;;5.43;80.89;99808.31;1087588;54;20023;-79
2022/11/14 02:40:17;;;;;;;18.27;13.82;;;;;;;5.42;81.35;99808.44;1087587;54;20042;-79
2022/11/14 02:41:21;;;;;;;16.38;13.70;;;;;;;5.39;81.67;99803.38;1088568;46;20077;-80
2022/11/14 02:42:23;;;;;;;15.68;12.75;;;;;;;5.40;81.33;99808.53;1088031;54;20026;-79
2022/11/14 02:43:27;;;;;;;17.25;13.32;;;;;;;5.41;81.14;99804.94;1092003;39;20301;-79
2022/11/14 02:44:29;;;;;;;15.75;12.32;;;;;;;5.42;81.69;99811.09;1089939;46;20042;-79
2022/11/14 02:45:33;;;;;;;16.70;12.93;;;;;;;5.45;81.47;99814.34;1088031;54;20036;-79
2022/11/14 02:46:34;;;;;;;16.63;13.43;;;;;;;5.55;81.01;99824.25;1088026;54;20061;-79
2022/11/14 02:47:39;;;;;;;20.35;12.98;;;;;;;5.55;80.92;99826.91;1088128;47;20422;-79
2022/11/14 02:48:40;;;;;;;14.45;12.32;;;;;;;5.52;80.83;99827.13;1088071;54;20046;-79
2022/11/14 02:49:44;;;;;;;15.73;13.05;;;;;;;5.47;81.03;99825.69;1090877;46;20034;-80
2022/11/14 02:50:48;;;;;;;16.25;13.10;;;;;;;5.52;80.94;99827.13;1088922;46;20050;-79
2022/11/14 02:51:54;;;;;;;17.35;12.63;;;;;;;5.46;81.31;99824.00;1088158;54;20034;-80
2022/11/14 02:52:56;;;;;;;16.70;12.13;;;;;;;5.52;81.37;99821.81;1088055;54;20034;-80
2022/11/14 02:54:00;;;;;;;16.85;12.52;;;;;;;5.69;80.70;99820.53;1088192;54;20031;-80
2022/11/14 02:55:01;;;;;;;14.40;11.43;;;;;;;5.84;80.24;99826.47;1088185;54;20041;-80
2022/11/14 02:56:06;;;;;;;14.00;11.02;;;;;;;5.90;79.74;99821.50;1088126;54;20069;-79
2022/11/14 02:57:07;;;;;;;13.48;11.07;;;;;;;5.96;79.50;99820.16;1087661;54;20058;-79
2022/11/14 02:58:11;;;;;;;15.15;11.32;;;;;;;5.99;79.26;99822.63;1087614;54;20030;-79
2022/11/14 02:59:13;;;;;;;12.90;10.20;;;;;;;6.04;78.98;99820.47;1087617;54;20034;-79
2022/11/14 03:00:18;;;;;;;13.77;10.77;;;;;;;6.05;79.14;99819.47;1087741;54;20015;-80
2022/11/14 03:01:19;;;;;;;12.63;10.52;;;;;;;6.02;78.85;99822.38;1088182;46;20069;-80
2022/11/14 03:02:24;;;;;;;13.32;10.60;;;;;;;5.97;79.40;99823.69;1087672;54;20034;-79
2022/11/14 03:03:25;;;;;;;14.35;10.93;;;;;;;6.03;79.13;99813.47;1087777;46;20030;-79
2022/11/14 03:04:29;;;;;;;13.98;10.30;;;;;;;6.11;79.11;99814.66;1087676;54;20086;-80
2022/11/14 03:05:30;;;;;;;15.02;10.77;;;;;;;6.17;78.91;99822.13;1087627;54;20065;-80
2022/11/14 03:06:34;;;;;;;13.80;10.48;;;;;;;6.15;78.49;99813.44;1087663;46;20041;-80
2022/11/14 03:07:39;;;;;;;14.77;10.00;;;;;;;6.22;78.24;99814.66;1087468;54;20085;-79
2022/11/14 03:08:43;;;;;;;14.27;10.63;;;;;;;6.04;78.95;99817.81;1087571;54;20098;-80
2022/11/14 03:09:44;;;;;;;15.25;12.25;;;;;;;5.91;79.26;99815.22;1089265;46;20034;-79
2022/11/14 03:10:48;;;;;;;16.02;12.48;;;;;;;5.88;79.23;99823.44;1087599;54;20030;-78
2022/11/14 03:11:49;;;;;;;15.98;12.35;;;;;;;5.81;79.82;99818.72;1087528;54;20069;-79
2022/11/14 03:12:55;;;;;;;13.90;11.88;;;;;;;5.81;79.80;99826.69;1087951;39;21051;-79
2022/11/14 03:13:58;;;;;;;16.58;13.02;;;;;;;5.85;79.47;99836.09;1088209;46;20046;-78
2022/11/14 03:15:02;;;;;;;13.45;11.38;;;;;;;5.85;79.50;99833.47;1087521;54;20065;-78
2022/11/14 03:16:06;;;;;;;14.65;11.23;;;;;;;6.00;79.03;99834.09;1087493;54;20030;-78
2022/11/14 03:17:10;;;;;;;14.38;11.30;;;;;;;6.06;78.78;99830.94;1087498;54;20030;-79
2022/11/14 03:18:11;;;;;;;13.45;10.77;;;;;;;6.15;78.44;99818.75;1087484;54;20039;-79
2022/11/14 03:19:15;;;;;;;13.10;10.85;;;;;;;6.15;78.53;99832.00;1087393;54;20034;-78
2022/11/14 03:20:17;;;;;;;12.95;10.27;;;;;;;6.20;78.30;99821.91;1087412;54;20038;-78
2022/11/14 03:21:23;;;;;;;13.10;10.25;;;;;;;6.26;78.28;99821.41;1087557;54;20086;-78
2022/11/14 03:22:25;;;;;;;12.40;9.60;;;;;;;6.31;78.08;99818.38;1087537;54;20705;-78
2022/11/14 03:23:32;;;;;;;11.70;9.35;;;;;;;6.37;77.55;99820.56;1087701;46;20034;-77
2022/11/14 03:24:34;;;;;;;13.52;10.23;;;;;;;6.31;77.83;99813.91;1087506;54;20038;-78
2022/11/14 03:25:38;;;;;;;11.18;8.80;;;;;;;6.40;77.69;99809.66;1087521;54;20027;-78
2022/11/14 03:26:40;;;;;;;11.40;8.88;;;;;;;6.44;77.66;99815.56;1086907;54;20038;-80
2022/11/14 03:27:45;;;;;;;13.15;9.57;;;;;;;6.39;77.86;99815.94;1086724;54;20114;-80
2022/11/14 03:28:54;;;;;;;13.82;10.20;;;;;;;6.37;77.78;99807.28;1086710;54;20678;-80
2022/11/14 03:29:59;;;;;;;13.80;10.18;;;;;;;6.42;77.76;99812.22;1086822;54;20560;-80
2022/11/14 03:31:00;;;;;;;12.75;9.80;;;;;;;6.45;77.64;99803.97;1086825;54;20038;-80
2022/11/14 03:32:05;;;;;;;12.27;9.80;;;;;;;6.42;77.75;99801.59;1086811;54;20034;-80
2022/11/14 03:33:06;;;;;;;13.15;10.10;;;;;;;6.46;77.67;99803.03;1086932;54;20073;-79
2022/11/14 03:34:11;;;;;;;14.13;10.07;;;;;;;6.44;77.59;99803.16;1087332;46;20066;-80
2022/11/14 03:35:12;;;;;;;13.07;10.20;;;;;;;6.49;77.18;99798.28;1086977;54;20047;-80
2022/11/14 03:36:16;;;;;;;12.98;10.07;;;;;;;6.55;77.00;99795.16;1086636;54;20030;-79
2022/11/14 03:37:18;;;;;;;13.98;10.95;;;;;;;6.45;77.51;99796.00;1086859;54;20106;-79
2022/11/14 03:38:31;;;;;;;14.32;10.75;;;;;;;6.40;77.51;99797.25;1088773;39;20562;-80
2022/11/14 03:39:35;;;;;;;14.45;10.68;;;;;;;6.35;77.56;99794.09;1086725;54;20046;-80
2022/11/14 03:40:41;;;;;;;13.68;10.77;;;;;;;6.31;77.62;99784.72;1086412;54;20039;-79
2022/11/14 03:41:42;;;;;;;14.68;11.27;;;;;;;6.34;77.91;99787.09;1086294;54;20069;-80
2022/11/14 03:42:46;;;;;;;12.95;10.20;;;;;;;6.35;77.68;99782.66;1086483;54;20030;-79
2022/11/14 03:43:48;;;;;;;13.63;10.18;;;;;;;6.39;77.65;99789.38;1087420;39;20460;-79
2022/11/14 03:44:52;;;;;;;13.77;11.27;;;;;;;6.42;77.32;99781.19;1086648;46;20041;-80
2022/11/14 03:45:57;;;;;;;13.00;9.90;;;;;;;6.36;77.75;99790.50;1088823;46;20588;-80
2022/11/14 03:47:01;;;;;;;16.27;12.73;;;;;;;6.08;78.27;99790.03;1086748;54;20053;-80
2022/11/14 03:48:03;;;;;;;19.00;13.50;;;;;;;5.91;79.01;99787.84;1086730;54;20742;-80
2022/11/14 03:49:07;;;;;;;17.55;13.30;;;;;;;5.78;79.54;99796.78;1086971;46;20031;-79
2022/11/14 03:50:09;;;;;;;15.32;12.38;;;;;;;5.85;79.67;99785.69;1086409;54;20061;-81
2022/11/14 03:51:13;;;;;;;17.15;13.18;;;;;;;5.86;79.35;99782.06;1086580;54;20073;-81
2022/11/14 03:52:17;;;;;;;14.23;12.27;;;;;;;5.72;79.79;99776.03;1086702;54;20046;-80
2022/11/14 03:53:18;;;;;;;19.77;13.48;;;;;;;5.71;79.84;99776.16;1086620;54;20102;-80
2022/11/14 03:54:22;;;;;;;14.93;11.65;;;;;;;5.69;79.49;99773.63;1086518;54;20038;-79
2022/11/14 03:55:27;;;;;;;16.88;12.75;;;;;;;5.63;80.01;99782.06;1086524;54;20069;-79
2022/11/14 03:56:31;;;;;;;16.52;12.23;;;;;;;5.46;80.47;99780.72;1087329;54;20022;-78
2022/11/14 03:57:32;;;;;;;16.23;13.00;;;;;;;5.50;nan;99776.00;1087543;54;20101;-78
2022/11/14 03:58:37;;;;;;;16.52;12.10;;;;;;;5.55;80.33;99771.22;1087340;54;20031;-78
2022/11/14 03:59:38;;;;;;;14.32;11.65;;;;;;;5.68;79.80;99766.63;1087638;54;20007;-78
2022/11/14 04:00:42;;;;;;;14.93;11.82;;;;;;;5.57;79.75;99762.16;1087685;54;20030;-78
2022/11/14 04:01:44;;;;;;;14.43;11.43;;;;;;;5.62;79.80;99773.25;1087467;54;20030;-78
2022/11/14 04:02:49;;;;;;;14.18;11.55;;;;;;;5.66;79.54;99767.72;1087448;54;20061;-80
2022/11/14 04:03:50;;;;;;;16.42;11.30;;;;;;;5.57;79.45;99766.63;1089091;46;20050;-80
2022/11/14 04:04:54;;;;;;;15.23;11.52;;;;;;;5.66;79.18;99765.06;1086809;46;20042;-80
2022/11/14 04:05:56;;;;;;;14.05;10.55;;;;;;;5.71;79.20;99763.75;1086660;54;20061;-80
2022/11/14 04:07:00;;;;;;;15.85;12.02;;;;;;;5.48;79.25;99765.53;1086702;54;20065;-80
2022/11/14 04:08:04;;;;;;;15.25;12.35;;;;;;;5.32;79.88;99771.16;1086656;54;20070;-81
2022/11/14 04:09:08;;;;;;;16.20;12.52;;;;;;;5.26;80.23;99766.34;1086717;54;20027;-79
2022/11/14 04:10:10;;;;;;;16.50;12.30;;;;;;;5.12;80.79;99765.59;1087330;54;20034;-78
2022/11/14 04:11:16;;;;;;;14.30;11.75;;;;;;;5.06;80.59;99760.75;1087296;54;20057;-78
2022/11/14 04:12:18;;;;;;;15.60;11.73;;;;;;;5.24;80.07;99765.63;1086756;54;20042;-80
2022/11/14 04:13:22;;;;;;;14.68;11.30;;;;;;;5.40;79.60;99775.91;1086613;54;20762;-80
2022/11/14 04:14:23;;;;;;;15.27;11.88;;;;;;;5.40;79.28;99771.41;1086574;54;20092;-81
2022/11/14 04:15:28;;;;;;;12.65;10.25;;;;;;;5.54;79.00;99782.78;1086935;54;20038;-80
2022/11/14 04:16:30;;;;;;;12.50;9.48;;;;;;;5.57;78.58;99787.84;1086737;54;20046;-80
2022/11/14 04:17:34;;;;;;;13.75;10.10;;;;;;;5.46;78.36;99780.72;1086450;54;20044;-80
2022/11/14 04:18:35;;;;;;;13.85;10.63;;;;;;;5.25;79.34;99789.34;1086794;46;20061;-80
2022/11/14 04:19:40;;;;;;;14.68;11.27;;;;;;;5.35;78.85;99794.81;1086786;54;20030;-81
2022/11/14 04:20:41;;;;;;;12.98;10.10;;;;;;;5.45;78.62;99797.56;1086761;54;20046;-80
2022/11/14 04:21:45;;;;;;;12.55;10.27;;;;;;;5.49;78.26;99803.47;1086871;54;20102;-79
2022/11/14 04:22:47;;;;;;;13.68;10.75;;;;;;;5.51;78.34;99798.91;1087285;46;20039;-79
2022/11/14 04:23:51;;;;;;;13.50;10.88;;;;;;;5.49;78.21;99795.53;1086585;54;20053;-80
2022/11/14 04:24:52;;;;;;;13.93;10.30;;;;;;;5.52;78.02;99803.25;1086537;54;20119;-80
2022/11/14 04:25:56;;;;;;;13.45;9.73;;;;;;;5.51;77.88;99789.16;1086475;54;20030;-79
2022/11/14 04:27:00;;;;;;;11.85;9.10;;;;;;;5.56;77.69;99788.81;1087630;54;20046;-81
2022/11/14 04:28:05;;;;;;;12.05;9.63;;;;;;;5.60;77.56;99792.91;1087774;54;20046;-80
2022/11/14 04:29:06;;;;;;;11.73;9.57;;;;;;;5.58;77.44;99790.38;1087132;54;20050;-80
2022/11/14 04:30:11;;;;;;;11.52;9.07;;;;;;;5.57;77.59;99790.50;1087673;46;20038;-80
2022/11/14 04:31:13;;;;;;;11.43;8.98;;;;;;;5.58;77.65;99800.13;1086634;47;20967;-80
2022/11/14 04:32:18;;;;;;;11.02;8.70;;;;;;;5.60;77.21;99782.28;1086725;54;20030;-80
2022/11/14 04:33:19;;;;;;;11.90;9.65;;;;;;;5.61;77.28;99783.97;1087343;46;20038;-80
2022/11/14 04:34:24;;;;;;;10.48;8.07;;;;;;;5.65;77.33;99788.09;1086531;54;20050;-80
2022/11/14 04:35:26;;;;;;;11.15;9.00;;;;;;;5.68;77.23;99789.66;1086986;54;20046;-80
2022/11/14 04:36:30;;;;;;;12.30;9.27;;;;;;;5.69;77.03;99792.19;1087809;39;20532;-80
2022/11/14 04:37:31;;;;;;;10.55;8.32;;;;;;;5.71;76.94;99786.78;1087654;31;20604;-81
2022/11/14 04:38:38;;;;;;;11.02;8.20;;;;;;;5.70;76.89;99775.31;1086990;47;20041;-80
2022/11/14 04:39:39;;;;;;;12.82;9.50;;;;;;;5.66;77.22;99776.53;1086953;54;20038;-80
2022/11/14 04:40:51;;;;;;;12.32;9.38;;;;;;;5.63;76.95;99772.28;1087243;54;20038;-81
2022/11/14 04:41:53;;;;;;;12.13;9.27;;;;;;;5.44;77.16;99779.97;1091474;46;20050;-80
2022/11/14 04:43:16;;;;;;;14.88;11.32;;;;;;;5.13;78.23;99791.13;1087909;54;20023;-81
2022/11/14 04:44:17;;;;;;;13.23;10.93;;;;;;;5.27;78.34;99797.19;1087740;54;20073;-80
2022/11/14 04:45:24;;;;;;;12.05;9.65;;;;;;;5.38;77.66;99791.06;1087795;54;20681;-80
2022/11/14 04:46:25;;;;;;;12.48;10.05;;;;;;;5.32;77.75;99789.72;1087746;54;20069;-81
2022/11/14 04:47:29;;;;;;;13.30;10.38;;;;;;;5.23;77.87;99801.88;1087821;54;20110;-80
2022/11/14 04:48:31;;;;;;;12.70;9.80;;;;;;;5.32;78.09;99792.38;1087835;54;20038;-80
2022/11/14 04:49:49;;;;;;;12.38;10.05;;;;;;;5.44;77.42;99798.53;1087742;54;20041;-81
2022/11/14 04:50:50;;;;;;;12.45;10.02;;;;;;;5.36;77.76;99795.63;1087763;54;20035;-81
2022/11/14 04:51:58;;;;;;;12.75;9.85;;;;;;;5.44;77.56;99788.78;1087862;47;20035;-80
2022/11/14 04:52:59;;;;;;;13.45;10.45;;;;;;;5.44;77.18;99788.78;1087653;54;20065;-80
2022/11/14 04:54:05;;;;;;;13.55;10.05;;;;;;;5.50;76.99;99797.22;1087567;54;20042;-80
2022/11/14 04:55:08;;;;;;;11.98;10.15;;;;;;;5.50;77.06;99792.78;1087964;47;20073;-80
2022/11/14 04:56:12;;;;;;;12.02;9.32;;;;;;;5.53;77.02;99787.22;1087564;54;20030;-80
2022/11/14 04:57:15;;;;;;;12.65;10.23;;;;;;;5.51;77.01;99797.13;1090262;46;20050;-78
2022/11/14 04:58:22;;;;;;;14.60;10.27;;;;;;;5.50;76.67;99786.63;1087138;54;20030;-78
2022/11/14 04:59:23;;;;;;;14.00;9.75;;;;;;;5.47;76.92;99777.97;1087293;54;20039;-79